sensor_id;sensor_type;location;lat;lon;timestamp;temperature;humidity
21331;DHT22;10824;51.632;4.950;2022-10-16T00:01:35;12.80;99.90
21331;DHT22;10824;51.632;4.950;2022-10-16T00:04:03;12.80;99.90
21331;DHT22;10824;51.632;4.950;2022-10-16T00:06:32;12.80;99.90
21331;DHT22;10824;51.632;4.950;2022-10-16T00:08:59;12.80;99.90
21331;DHT22;10824;51.632;4.950;2022-10-16T00:11:30;12.80;99.90
21331;DHT22;10824;51.632;4.950;2022-10-16T00:13:59;12.90;99.90
21331;DHT22;10824;51.632;4.950;2022-10-16T00:16:28;12.90;99.90
21331;DHT22;10824;51.632;4.950;2022-10-16T00:18:56;12.90;99.90
21331;DHT22;10824;51.632;4.950;2022-10-16T00:21:25;12.90;99.90
21331;DHT22;10824;51.632;4.950;2022-10-16T00:23:56;12.90;99.90
21331;DHT22;10824;51.632;4.950;2022-10-16T00:26:23;12.90;99.90
21331;DHT22;10824;51.632;4.950;2022-10-16T00:28:50;12.90;99.90
21331;DHT22;10824;51.632;4.950;2022-10-16T00:31:20;12.90;99.90
21331;DHT22;10824;51.632;4.950;2022-10-16T00:33:48;12.90;99.90
21331;DHT22;10824;51.632;4.950;2022-10-16T00:36:18;12.90;99.90
21331;DHT22;10824;51.632;4.950;2022-10-16T00:38:45;12.90;99.90
21331;DHT22;10824;51.632;4.950;2022-10-16T00:41:16;13.00;99.90
21331;DHT22;10824;51.632;4.950;2022-10-16T00:43:51;13.00;99.90
21331;DHT22;10824;51.632;4.950;2022-10-16T00:46:22;13.00;99.90
21331;DHT22;10824;51.632;4.950;2022-10-16T00:49:02;13.10;99.90
21331;DHT22;10824;51.632;4.950;2022-10-16T00:51:36;13.10;99.90
21331;DHT22;10824;51.632;4.950;2022-10-16T00:54:06;13.10;99.90
21331;DHT22;10824;51.632;4.950;2022-10-16T00:56:34;13.20;99.90
21331;DHT22;10824;51.632;4.950;2022-10-16T00:59:04;13.20;99.90
21331;DHT22;10824;51.632;4.950;2022-10-16T01:01:34;13.20;99.90
21331;DHT22;10824;51.632;4.950;2022-10-16T01:04:01;13.20;99.90
21331;DHT22;10824;51.632;4.950;2022-10-16T01:06:32;13.30;99.90
21331;DHT22;10824;51.632;4.950;2022-10-16T01:09:23;13.30;99.90
21331;DHT22;10824;51.632;4.950;2022-10-16T01:14:58;13.30;99.90
21331;DHT22;10824;51.632;4.950;2022-10-16T01:17:43;13.30;99.90
21331;DHT22;10824;51.632;4.950;2022-10-16T01:20:26;13.30;99.90
21331;DHT22;10824;51.632;4.950;2022-10-16T01:22:59;13.30;99.90
21331;DHT22;10824;51.632;4.950;2022-10-16T01:28:13;13.30;99.90
21331;DHT22;10824;51.632;4.950;2022-10-16T01:30:43;13.30;99.90
21331;DHT22;10824;51.632;4.950;2022-10-16T01:33:20;13.20;99.90
21331;DHT22;10824;51.632;4.950;2022-10-16T01:35:56;13.20;99.90
21331;DHT22;10824;51.632;4.950;2022-10-16T01:38:34;13.20;99.90
21331;DHT22;10824;51.632;4.950;2022-10-16T01:41:18;13.20;99.90
21331;DHT22;10824;51.632;4.950;2022-10-16T01:43:51;13.20;99.90
21331;DHT22;10824;51.632;4.950;2022-10-16T01:46:21;13.20;99.90
21331;DHT22;10824;51.632;4.950;2022-10-16T01:48:50;13.20;99.90
21331;DHT22;10824;51.632;4.950;2022-10-16T01:51:18;13.20;99.90
21331;DHT22;10824;51.632;4.950;2022-10-16T01:53:50;13.20;99.90
21331;DHT22;10824;51.632;4.950;2022-10-16T01:56:19;13.20;99.90
21331;DHT22;10824;51.632;4.950;2022-10-16T01:58:53;13.20;99.90
21331;DHT22;10824;51.632;4.950;2022-10-16T02:01:23;13.20;99.90
21331;DHT22;10824;51.632;4.950;2022-10-16T02:03:54;13.10;99.90
21331;DHT22;10824;51.632;4.950;2022-10-16T02:06:23;13.10;99.90
21331;DHT22;10824;51.632;4.950;2022-10-16T02:08:50;13.10;99.90
21331;DHT22;10824;51.632;4.950;2022-10-16T02:11:17;13.10;99.90
21331;DHT22;10824;51.632;4.950;2022-10-16T02:13:48;13.10;99.90
21331;DHT22;10824;51.632;4.950;2022-10-16T02:16:16;13.00;99.90
21331;DHT22;10824;51.632;4.950;2022-10-16T02:18:44;13.00;99.90
21331;DHT22;10824;51.632;4.950;2022-10-16T02:21:18;13.00;99.90
21331;DHT22;10824;51.632;4.950;2022-10-16T02:26:45;13.00;99.90
21331;DHT22;10824;51.632;4.950;2022-10-16T02:29:18;13.00;99.90
21331;DHT22;10824;51.632;4.950;2022-10-16T02:31:50;12.90;99.90
21331;DHT22;10824;51.632;4.950;2022-10-16T02:34:21;12.90;99.90
21331;DHT22;10824;51.632;4.950;2022-10-16T02:36:49;12.90;99.90
21331;DHT22;10824;51.632;4.950;2022-10-16T02:39:18;12.90;99.90
21331;DHT22;10824;51.632;4.950;2022-10-16T02:41:46;12.90;99.90
21331;DHT22;10824;51.632;4.950;2022-10-16T02:44:13;12.90;99.90
21331;DHT22;10824;51.632;4.950;2022-10-16T02:46:43;12.90;99.90
21331;DHT22;10824;51.632;4.950;2022-10-16T02:49:10;12.90;99.90
21331;DHT22;10824;51.632;4.950;2022-10-16T02:51:37;12.90;99.90
21331;DHT22;10824;51.632;4.950;2022-10-16T02:54:05;12.90;99.90
21331;DHT22;10824;51.632;4.950;2022-10-16T02:56:32;12.90;99.90
21331;DHT22;10824;51.632;4.950;2022-10-16T02:58:59;12.90;99.90
21331;DHT22;10824;51.632;4.950;2022-10-16T03:01:26;12.80;99.90
21331;DHT22;10824;51.632;4.950;2022-10-16T03:03:53;12.80;99.90
21331;DHT22;10824;51.632;4.950;2022-10-16T03:06:20;12.80;99.90
21331;DHT22;10824;51.632;4.950;2022-10-16T03:08:48;12.80;99.90
21331;DHT22;10824;51.632;4.950;2022-10-16T03:11:15;12.80;99.90
21331;DHT22;10824;51.632;4.950;2022-10-16T03:13:45;12.70;99.90
21331;DHT22;10824;51.632;4.950;2022-10-16T03:16:12;12.80;99.90
21331;DHT22;10824;51.632;4.950;2022-10-16T03:18:39;12.70;99.90
21331;DHT22;10824;51.632;4.950;2022-10-16T03:21:06;12.70;99.90
21331;DHT22;10824;51.632;4.950;2022-10-16T03:23:33;12.70;99.90
21331;DHT22;10824;51.632;4.950;2022-10-16T03:26:00;12.70;99.90
21331;DHT22;10824;51.632;4.950;2022-10-16T03:28:26;12.70;99.90
21331;DHT22;10824;51.632;4.950;2022-10-16T03:30:53;12.70;99.90
21331;DHT22;10824;51.632;4.950;2022-10-16T03:33:20;12.70;99.90
21331;DHT22;10824;51.632;4.950;2022-10-16T03:35:51;12.70;99.90
21331;DHT22;10824;51.632;4.950;2022-10-16T03:38:20;12.70;99.90
21331;DHT22;10824;51.632;4.950;2022-10-16T03:40:47;12.70;99.90
21331;DHT22;10824;51.632;4.950;2022-10-16T03:43:14;12.70;99.90
21331;DHT22;10824;51.632;4.950;2022-10-16T03:45:42;12.70;99.90
21331;DHT22;10824;51.632;4.950;2022-10-16T03:48:09;12.70;99.90
21331;DHT22;10824;51.632;4.950;2022-10-16T03:50:36;12.70;99.90
21331;DHT22;10824;51.632;4.950;2022-10-16T03:53:05;12.70;99.90
21331;DHT22;10824;51.632;4.950;2022-10-16T03:55:32;12.70;99.90
21331;DHT22;10824;51.632;4.950;2022-10-16T03:57:59;12.70;99.90
21331;DHT22;10824;51.632;4.950;2022-10-16T04:00:26;12.70;99.90
21331;DHT22;10824;51.632;4.950;2022-10-16T04:02:53;12.70;99.90
21331;DHT22;10824;51.632;4.950;2022-10-16T04:05:20;12.70;99.90
21331;DHT22;10824;51.632;4.950;2022-10-16T04:07:47;12.70;99.90
21331;DHT22;10824;51.632;4.950;2022-10-16T04:10:14;12.70;99.90
21331;DHT22;10824;51.632;4.950;2022-10-16T04:12:41;12.70;99.90
21331;DHT22;10824;51.632;4.950;2022-10-16T04:15:08;12.60;99.90
21331;DHT22;10824;51.632;4.950;2022-10-16T04:17:36;12.60;99.90
21331;DHT22;10824;51.632;4.950;2022-10-16T04:20:04;12.70;99.90
21331;DHT22;10824;51.632;4.950;2022-10-16T04:22:31;12.70;99.90
21331;DHT22;10824;51.632;4.950;2022-10-16T04:24:58;12.60;99.90
21331;DHT22;10824;51.632;4.950;2022-10-16T04:27:25;12.60;99.90
21331;DHT22;10824;51.632;4.950;2022-10-16T04:29:52;12.60;99.90
21331;DHT22;10824;51.632;4.950;2022-10-16T04:32:19;12.60;99.90
21331;DHT22;10824;51.632;4.950;2022-10-16T04:34:46;12.60;99.90
21331;DHT22;10824;51.632;4.950;2022-10-16T04:37:13;12.60;99.90
21331;DHT22;10824;51.632;4.950;2022-10-16T04:39:40;12.50;99.90
21331;DHT22;10824;51.632;4.950;2022-10-16T04:42:07;12.50;99.90
21331;DHT22;10824;51.632;4.950;2022-10-16T04:44:34;12.50;99.90
21331;DHT22;10824;51.632;4.950;2022-10-16T04:47:01;12.50;99.90
21331;DHT22;10824;51.632;4.950;2022-10-16T04:49:28;12.50;99.90
21331;DHT22;10824;51.632;4.950;2022-10-16T04:51:55;12.50;99.90
21331;DHT22;10824;51.632;4.950;2022-10-16T04:54:22;12.50;99.90
21331;DHT22;10824;51.632;4.950;2022-10-16T04:56:49;12.50;99.90
21331;DHT22;10824;51.632;4.950;2022-10-16T04:59:19;12.40;99.90
21331;DHT22;10824;51.632;4.950;2022-10-16T05:01:46;12.40;99.90
21331;DHT22;10824;51.632;4.950;2022-10-16T05:04:13;12.40;99.90
21331;DHT22;10824;51.632;4.950;2022-10-16T05:06:42;12.40;99.90
21331;DHT22;10824;51.632;4.950;2022-10-16T05:09:09;12.30;99.90
21331;DHT22;10824;51.632;4.950;2022-10-16T05:11:36;12.40;99.90
21331;DHT22;10824;51.632;4.950;2022-10-16T05:14:03;12.40;99.90
21331;DHT22;10824;51.632;4.950;2022-10-16T05:16:31;12.40;99.90
21331;DHT22;10824;51.632;4.950;2022-10-16T05:18:58;12.40;99.90
21331;DHT22;10824;51.632;4.950;2022-10-16T05:21:45;12.40;99.90
21331;DHT22;10824;51.632;4.950;2022-10-16T05:24:12;12.30;99.90
21331;DHT22;10824;51.632;4.950;2022-10-16T05:26:41;12.30;99.90
21331;DHT22;10824;51.632;4.950;2022-10-16T05:29:09;12.30;99.90
21331;DHT22;10824;51.632;4.950;2022-10-16T05:31:36;12.30;99.90
21331;DHT22;10824;51.632;4.950;2022-10-16T05:34:03;12.30;99.90
21331;DHT22;10824;51.632;4.950;2022-10-16T05:36:31;12.20;99.90
21331;DHT22;10824;51.632;4.950;2022-10-16T05:38:58;12.20;99.90
21331;DHT22;10824;51.632;4.950;2022-10-16T05:41:25;12.20;99.90
21331;DHT22;10824;51.632;4.950;2022-10-16T05:43:53;12.20;99.90
21331;DHT22;10824;51.632;4.950;2022-10-16T05:46:20;12.20;99.90
21331;DHT22;10824;51.632;4.950;2022-10-16T05:48:47;12.20;99.90
21331;DHT22;10824;51.632;4.950;2022-10-16T05:51:15;12.10;99.90
21331;DHT22;10824;51.632;4.950;2022-10-16T05:53:42;12.20;99.90
21331;DHT22;10824;51.632;4.950;2022-10-16T05:56:11;12.20;99.90
21331;DHT22;10824;51.632;4.950;2022-10-16T05:58:39;12.10;99.90
21331;DHT22;10824;51.632;4.950;2022-10-16T06:01:13;12.10;99.90
21331;DHT22;10824;51.632;4.950;2022-10-16T06:03:41;12.10;99.90
21331;DHT22;10824;51.632;4.950;2022-10-16T06:06:13;12.10;99.90
21331;DHT22;10824;51.632;4.950;2022-10-16T06:08:43;12.10;99.90
21331;DHT22;10824;51.632;4.950;2022-10-16T06:11:14;12.10;99.90
21331;DHT22;10824;51.632;4.950;2022-10-16T06:13:43;12.10;99.90
21331;DHT22;10824;51.632;4.950;2022-10-16T06:16:10;12.10;99.90
21331;DHT22;10824;51.632;4.950;2022-10-16T06:18:38;12.10;99.90
21331;DHT22;10824;51.632;4.950;2022-10-16T06:21:10;12.10;99.90
21331;DHT22;10824;51.632;4.950;2022-10-16T06:23:38;12.10;99.90
21331;DHT22;10824;51.632;4.950;2022-10-16T06:26:10;12.10;99.90
21331;DHT22;10824;51.632;4.950;2022-10-16T06:28:37;12.10;99.90
21331;DHT22;10824;51.632;4.950;2022-10-16T06:31:06;12.20;99.90
21331;DHT22;10824;51.632;4.950;2022-10-16T06:33:34;12.20;99.90
21331;DHT22;10824;51.632;4.950;2022-10-16T06:36:16;12.20;99.90
21331;DHT22;10824;51.632;4.950;2022-10-16T06:38:44;12.20;99.90
21331;DHT22;10824;51.632;4.950;2022-10-16T06:41:19;12.20;99.90
21331;DHT22;10824;51.632;4.950;2022-10-16T06:43:47;12.20;99.90
21331;DHT22;10824;51.632;4.950;2022-10-16T06:46:19;12.20;99.90
21331;DHT22;10824;51.632;4.950;2022-10-16T06:48:46;12.30;99.90
21331;DHT22;10824;51.632;4.950;2022-10-16T06:51:15;12.30;99.90
21331;DHT22;10824;51.632;4.950;2022-10-16T06:53:45;12.30;99.90
21331;DHT22;10824;51.632;4.950;2022-10-16T06:56:32;12.40;99.90
21331;DHT22;10824;51.632;4.950;2022-10-16T06:58:59;12.30;99.90
21331;DHT22;10824;51.632;4.950;2022-10-16T07:01:27;12.40;99.90
21331;DHT22;10824;51.632;4.950;2022-10-16T07:03:54;12.30;99.90
21331;DHT22;10824;51.632;4.950;2022-10-16T07:06:24;12.40;99.90
21331;DHT22;10824;51.632;4.950;2022-10-16T07:08:51;12.40;99.90
21331;DHT22;10824;51.632;4.950;2022-10-16T07:11:21;12.40;99.90
21331;DHT22;10824;51.632;4.950;2022-10-16T07:13:49;12.40;99.90
21331;DHT22;10824;51.632;4.950;2022-10-16T07:16:29;12.40;99.90
21331;DHT22;10824;51.632;4.950;2022-10-16T07:18:58;12.40;99.90
21331;DHT22;10824;51.632;4.950;2022-10-16T07:21:36;12.50;99.90
21331;DHT22;10824;51.632;4.950;2022-10-16T07:24:05;12.50;99.90
21331;DHT22;10824;51.632;4.950;2022-10-16T07:26:35;12.50;99.90
21331;DHT22;10824;51.632;4.950;2022-10-16T07:29:02;12.50;99.90
21331;DHT22;10824;51.632;4.950;2022-10-16T07:31:30;12.60;99.90
21331;DHT22;10824;51.632;4.950;2022-10-16T07:33:59;12.60;99.90
21331;DHT22;10824;51.632;4.950;2022-10-16T07:36:27;12.70;99.90
21331;DHT22;10824;51.632;4.950;2022-10-16T07:38:54;12.60;99.90
21331;DHT22;10824;51.632;4.950;2022-10-16T07:41:25;12.60;99.90
21331;DHT22;10824;51.632;4.950;2022-10-16T07:43:53;12.60;99.90
21331;DHT22;10824;51.632;4.950;2022-10-16T07:46:22;12.60;99.90
21331;DHT22;10824;51.632;4.950;2022-10-16T07:48:50;12.60;99.90
21331;DHT22;10824;51.632;4.950;2022-10-16T07:51:19;12.60;99.90
21331;DHT22;10824;51.632;4.950;2022-10-16T07:53:47;12.70;99.90
21331;DHT22;10824;51.632;4.950;2022-10-16T07:56:16;12.80;99.90
21331;DHT22;10824;51.632;4.950;2022-10-16T07:58:44;12.80;99.90
21331;DHT22;10824;51.632;4.950;2022-10-16T08:01:14;12.90;99.90
21331;DHT22;10824;51.632;4.950;2022-10-16T08:03:46;13.00;99.90
21331;DHT22;10824;51.632;4.950;2022-10-16T08:06:14;13.10;99.90
21331;DHT22;10824;51.632;4.950;2022-10-16T08:08:44;13.20;99.90
21331;DHT22;10824;51.632;4.950;2022-10-16T08:11:11;13.30;99.90
21331;DHT22;10824;51.632;4.950;2022-10-16T08:13:38;13.40;99.90
21331;DHT22;10824;51.632;4.950;2022-10-16T08:16:05;13.50;99.90
21331;DHT22;10824;51.632;4.950;2022-10-16T08:18:42;13.60;99.90
21331;DHT22;10824;51.632;4.950;2022-10-16T08:21:16;13.70;99.90
21331;DHT22;10824;51.632;4.950;2022-10-16T08:23:48;13.80;99.90
21331;DHT22;10824;51.632;4.950;2022-10-16T08:26:24;13.90;99.90
21331;DHT22;10824;51.632;4.950;2022-10-16T08:28:51;14.00;99.90
21331;DHT22;10824;51.632;4.950;2022-10-16T08:31:19;14.10;99.90
21331;DHT22;10824;51.632;4.950;2022-10-16T08:33:47;14.10;99.90
21331;DHT22;10824;51.632;4.950;2022-10-16T08:36:17;14.20;99.90
21331;DHT22;10824;51.632;4.950;2022-10-16T08:38:47;14.30;99.90
21331;DHT22;10824;51.632;4.950;2022-10-16T08:47:21;14.40;99.90
21331;DHT22;10824;51.632;4.950;2022-10-16T08:50:02;14.60;99.90
21331;DHT22;10824;51.632;4.950;2022-10-16T08:52:35;14.60;99.90
21331;DHT22;10824;51.632;4.950;2022-10-16T08:55:06;14.70;99.90
21331;DHT22;10824;51.632;4.950;2022-10-16T08:57:35;14.80;99.90
21331;DHT22;10824;51.632;4.950;2022-10-16T09:00:12;14.90;99.90
21331;DHT22;10824;51.632;4.950;2022-10-16T09:13:28;15.30;99.90
21331;DHT22;10824;51.632;4.950;2022-10-16T09:21:36;15.70;99.90
21331;DHT22;10824;51.632;4.950;2022-10-16T09:24:14;15.80;99.90
21331;DHT22;10824;51.632;4.950;2022-10-16T09:26:42;15.80;99.90
21331;DHT22;10824;51.632;4.950;2022-10-16T09:29:14;15.80;99.90
21331;DHT22;10824;51.632;4.950;2022-10-16T09:31:42;15.90;99.90
21331;DHT22;10824;51.632;4.950;2022-10-16T09:34:25;16.00;99.90
21331;DHT22;10824;51.632;4.950;2022-10-16T09:36:57;16.00;99.90
21331;DHT22;10824;51.632;4.950;2022-10-16T09:39:27;16.10;99.90
21331;DHT22;10824;51.632;4.950;2022-10-16T09:41:56;16.00;99.90
21331;DHT22;10824;51.632;4.950;2022-10-16T09:47:15;16.20;99.90
21331;DHT22;10824;51.632;4.950;2022-10-16T09:49:59;16.20;99.40
21331;DHT22;10824;51.632;4.950;2022-10-16T09:52:29;16.30;99.80
21331;DHT22;10824;51.632;4.950;2022-10-16T09:55:13;16.30;98.60
21331;DHT22;10824;51.632;4.950;2022-10-16T09:57:53;16.40;98.30
21331;DHT22;10824;51.632;4.950;2022-10-16T10:00:23;16.50;96.70
21331;DHT22;10824;51.632;4.950;2022-10-16T10:02:50;16.60;95.20
21331;DHT22;10824;51.632;4.950;2022-10-16T10:05:24;16.60;96.00
21331;DHT22;10824;51.632;4.950;2022-10-16T10:08:00;16.60;93.90
21331;DHT22;10824;51.632;4.950;2022-10-16T10:10:32;16.50;94.50
21331;DHT22;10824;51.632;4.950;2022-10-16T10:13:00;16.70;96.40
21331;DHT22;10824;51.632;4.950;2022-10-16T10:15:33;16.80;95.00
21331;DHT22;10824;51.632;4.950;2022-10-16T10:18:00;16.90;93.20
21331;DHT22;10824;51.632;4.950;2022-10-16T10:20:36;17.10;92.50
21331;DHT22;10824;51.632;4.950;2022-10-16T10:23:23;17.10;91.40
21331;DHT22;10824;51.632;4.950;2022-10-16T10:26:05;16.90;91.00
21331;DHT22;10824;51.632;4.950;2022-10-16T10:31:48;17.10;88.70
21331;DHT22;10824;51.632;4.950;2022-10-16T10:39:56;16.90;91.50
21331;DHT22;10824;51.632;4.950;2022-10-16T10:45:17;17.00;86.60
21331;DHT22;10824;51.632;4.950;2022-10-16T10:53:33;17.40;83.90
21331;DHT22;10824;51.632;4.950;2022-10-16T11:01:21;17.70;82.50
21331;DHT22;10824;51.632;4.950;2022-10-16T11:04:24;17.70;80.70
21331;DHT22;10824;51.632;4.950;2022-10-16T11:07:05;17.80;82.20
21331;DHT22;10824;51.632;4.950;2022-10-16T11:09:39;17.80;80.70
21331;DHT22;10824;51.632;4.950;2022-10-16T11:12:21;17.90;77.50
21331;DHT22;10824;51.632;4.950;2022-10-16T11:15:14;18.10;75.20
21331;DHT22;10824;51.632;4.950;2022-10-16T11:18:27;18.20;76.10
21331;DHT22;10824;51.632;4.950;2022-10-16T11:21:02;17.60;73.40
21331;DHT22;10824;51.632;4.950;2022-10-16T11:23:42;17.70;76.10
21331;DHT22;10824;51.632;4.950;2022-10-16T11:26:16;17.60;75.30
21331;DHT22;10824;51.632;4.950;2022-10-16T11:28:49;17.90;74.10
21331;DHT22;10824;51.632;4.950;2022-10-16T11:31:38;18.00;73.50
21331;DHT22;10824;51.632;4.950;2022-10-16T11:37:09;18.30;74.60
21331;DHT22;10824;51.632;4.950;2022-10-16T11:39:38;18.30;71.90
21331;DHT22;10824;51.632;4.950;2022-10-16T11:42:44;18.30;70.70
21331;DHT22;10824;51.632;4.950;2022-10-16T11:48:00;18.00;71.40
21331;DHT22;10824;51.632;4.950;2022-10-16T11:55:55;18.20;66.70
21331;DHT22;10824;51.632;4.950;2022-10-16T12:06:39;18.30;59.50
21331;DHT22;10824;51.632;4.950;2022-10-16T12:09:15;18.10;59.80
21331;DHT22;10824;51.632;4.950;2022-10-16T12:11:46;18.40;64.80
21331;DHT22;10824;51.632;4.950;2022-10-16T12:14:40;18.50;57.40
21331;DHT22;10824;51.632;4.950;2022-10-16T12:17:35;18.60;53.10
21331;DHT22;10824;51.632;4.950;2022-10-16T12:22:56;18.60;50.20
21331;DHT22;10824;51.632;4.950;2022-10-16T12:30:43;18.80;48.50
21331;DHT22;10824;51.632;4.950;2022-10-16T12:35:52;18.90;51.90
21331;DHT22;10824;51.632;4.950;2022-10-16T12:38:28;18.90;46.60
21331;DHT22;10824;51.632;4.950;2022-10-16T12:51:46;18.90;50.70
21331;DHT22;10824;51.632;4.950;2022-10-16T12:54:19;19.00;49.10
21331;DHT22;10824;51.632;4.950;2022-10-16T12:59:48;19.20;45.00
21331;DHT22;10824;51.632;4.950;2022-10-16T13:19:50;19.40;40.90
21331;DHT22;10824;51.632;4.950;2022-10-16T13:28:10;19.30;51.90
21331;DHT22;10824;51.632;4.950;2022-10-16T13:30:45;19.20;39.20
21331;DHT22;10824;51.632;4.950;2022-10-16T13:33:37;19.40;38.10
21331;DHT22;10824;51.632;4.950;2022-10-16T13:36:06;19.30;42.10
21331;DHT22;10824;51.632;4.950;2022-10-16T13:38:35;19.00;41.00
21331;DHT22;10824;51.632;4.950;2022-10-16T13:41:15;19.00;44.70
21331;DHT22;10824;51.632;4.950;2022-10-16T13:43:54;19.10;41.90
21331;DHT22;10824;51.632;4.950;2022-10-16T13:46:25;19.00;45.70
21331;DHT22;10824;51.632;4.950;2022-10-16T13:49:16;18.90;50.70
21331;DHT22;10824;51.632;4.950;2022-10-16T13:51:57;18.80;43.40
21331;DHT22;10824;51.632;4.950;2022-10-16T13:54:26;19.00;43.30
21331;DHT22;10824;51.632;4.950;2022-10-16T13:56:54;19.30;51.10
21331;DHT22;10824;51.632;4.950;2022-10-16T13:59:37;19.30;39.40
21331;DHT22;10824;51.632;4.950;2022-10-16T14:02:34;19.40;43.10
21331;DHT22;10824;51.632;4.950;2022-10-16T14:05:04;19.60;44.90
21331;DHT22;10824;51.632;4.950;2022-10-16T14:07:35;19.40;35.50
21331;DHT22;10824;51.632;4.950;2022-10-16T14:10:18;19.40;37.70
21331;DHT22;10824;51.632;4.950;2022-10-16T14:13:01;19.20;37.10
21331;DHT22;10824;51.632;4.950;2022-10-16T14:15:30;19.20;39.10
21331;DHT22;10824;51.632;4.950;2022-10-16T14:18:01;19.10;51.70
21331;DHT22;10824;51.632;4.950;2022-10-16T14:20:33;18.90;44.80
21331;DHT22;10824;51.632;4.950;2022-10-16T14:23:21;18.80;47.40
21331;DHT22;10824;51.632;4.950;2022-10-16T14:25:50;18.70;52.10
21331;DHT22;10824;51.632;4.950;2022-10-16T14:28:20;18.70;50.10
21331;DHT22;10824;51.632;4.950;2022-10-16T14:30:56;18.60;45.10
21331;DHT22;10824;51.632;4.950;2022-10-16T14:33:32;18.70;47.60
21331;DHT22;10824;51.632;4.950;2022-10-16T14:36:15;18.70;45.00
21331;DHT22;10824;51.632;4.950;2022-10-16T14:39:04;18.70;45.50
21331;DHT22;10824;51.632;4.950;2022-10-16T14:41:40;18.80;48.40
21331;DHT22;10824;51.632;4.950;2022-10-16T14:44:10;18.80;47.10
21331;DHT22;10824;51.632;4.950;2022-10-16T14:46:41;18.80;52.60
21331;DHT22;10824;51.632;4.950;2022-10-16T14:51:41;18.60;46.60
21331;DHT22;10824;51.632;4.950;2022-10-16T14:54:09;18.50;49.40
21331;DHT22;10824;51.632;4.950;2022-10-16T14:56:57;18.50;53.60
21331;DHT22;10824;51.632;4.950;2022-10-16T14:59:29;18.30;55.00
21331;DHT22;10824;51.632;4.950;2022-10-16T15:01:58;18.30;55.70
21331;DHT22;10824;51.632;4.950;2022-10-16T15:04:26;18.30;58.10
21331;DHT22;10824;51.632;4.950;2022-10-16T15:06:53;18.30;58.80
21331;DHT22;10824;51.632;4.950;2022-10-16T15:09:20;18.20;60.10
21331;DHT22;10824;51.632;4.950;2022-10-16T15:11:48;18.30;62.60
21331;DHT22;10824;51.632;4.950;2022-10-16T15:14:16;18.30;62.00
21331;DHT22;10824;51.632;4.950;2022-10-16T15:16:43;18.20;60.20
21331;DHT22;10824;51.632;4.950;2022-10-16T15:19:10;18.20;61.90
21331;DHT22;10824;51.632;4.950;2022-10-16T15:21:38;18.10;63.80
21331;DHT22;10824;51.632;4.950;2022-10-16T15:24:08;18.10;61.20
21331;DHT22;10824;51.632;4.950;2022-10-16T15:26:35;18.00;63.00
21331;DHT22;10824;51.632;4.950;2022-10-16T15:29:02;18.10;67.10
21331;DHT22;10824;51.632;4.950;2022-10-16T15:31:30;18.00;66.60
21331;DHT22;10824;51.632;4.950;2022-10-16T15:33:57;18.00;68.20
21331;DHT22;10824;51.632;4.950;2022-10-16T15:36:34;18.00;70.30
21331;DHT22;10824;51.632;4.950;2022-10-16T15:39:13;18.00;70.60
21331;DHT22;10824;51.632;4.950;2022-10-16T15:41:46;17.90;73.20
21331;DHT22;10824;51.632;4.950;2022-10-16T15:44:18;17.80;74.00
21331;DHT22;10824;51.632;4.950;2022-10-16T15:46:46;17.80;75.70
21331;DHT22;10824;51.632;4.950;2022-10-16T15:49:13;17.80;76.70
21331;DHT22;10824;51.632;4.950;2022-10-16T15:51:44;17.70;78.30
21331;DHT22;10824;51.632;4.950;2022-10-16T15:54:12;17.70;80.20
21331;DHT22;10824;51.632;4.950;2022-10-16T15:56:41;17.70;81.40
21331;DHT22;10824;51.632;4.950;2022-10-16T15:59:08;17.70;81.20
21331;DHT22;10824;51.632;4.950;2022-10-16T16:01:36;17.70;82.20
21331;DHT22;10824;51.632;4.950;2022-10-16T16:04:06;17.60;82.50
21331;DHT22;10824;51.632;4.950;2022-10-16T16:06:48;17.60;82.30
21331;DHT22;10824;51.632;4.950;2022-10-16T16:09:17;17.60;83.30
21331;DHT22;10824;51.632;4.950;2022-10-16T16:11:44;17.50;83.10
21331;DHT22;10824;51.632;4.950;2022-10-16T16:14:17;17.50;84.10
21331;DHT22;10824;51.632;4.950;2022-10-16T16:16:45;17.40;84.90
21331;DHT22;10824;51.632;4.950;2022-10-16T16:19:12;17.40;85.30
21331;DHT22;10824;51.632;4.950;2022-10-16T16:21:40;17.40;85.60
21331;DHT22;10824;51.632;4.950;2022-10-16T16:24:07;17.40;86.50
21331;DHT22;10824;51.632;4.950;2022-10-16T16:26:36;17.30;86.00
21331;DHT22;10824;51.632;4.950;2022-10-16T16:29:07;17.30;86.30
21331;DHT22;10824;51.632;4.950;2022-10-16T16:31:36;17.30;87.80
21331;DHT22;10824;51.632;4.950;2022-10-16T16:34:04;17.30;87.20
21331;DHT22;10824;51.632;4.950;2022-10-16T16:36:32;17.30;87.50
21331;DHT22;10824;51.632;4.950;2022-10-16T16:38:59;17.20;87.30
21331;DHT22;10824;51.632;4.950;2022-10-16T16:41:28;17.20;87.80
21331;DHT22;10824;51.632;4.950;2022-10-16T16:44:04;17.20;88.20
21331;DHT22;10824;51.632;4.950;2022-10-16T16:46:33;17.20;88.60
21331;DHT22;10824;51.632;4.950;2022-10-16T16:49:01;17.20;88.90
21331;DHT22;10824;51.632;4.950;2022-10-16T16:51:28;17.20;90.00
21331;DHT22;10824;51.632;4.950;2022-10-16T16:53:55;17.10;90.50
21331;DHT22;10824;51.632;4.950;2022-10-16T16:56:23;17.10;91.90
21331;DHT22;10824;51.632;4.950;2022-10-16T16:58:53;17.00;92.20
21331;DHT22;10824;51.632;4.950;2022-10-16T17:01:21;16.90;92.90
21331;DHT22;10824;51.632;4.950;2022-10-16T17:03:51;16.90;93.50
21331;DHT22;10824;51.632;4.950;2022-10-16T17:06:20;16.90;94.70
21331;DHT22;10824;51.632;4.950;2022-10-16T17:08:48;16.90;94.30
21331;DHT22;10824;51.632;4.950;2022-10-16T17:11:20;16.80;94.70
21331;DHT22;10824;51.632;4.950;2022-10-16T17:13:49;16.70;95.40
21331;DHT22;10824;51.632;4.950;2022-10-16T17:16:24;16.70;96.50
21331;DHT22;10824;51.632;4.950;2022-10-16T17:18:51;16.70;97.00
21331;DHT22;10824;51.632;4.950;2022-10-16T17:21:20;16.60;97.10
21331;DHT22;10824;51.632;4.950;2022-10-16T17:23:47;16.60;97.50
21331;DHT22;10824;51.632;4.950;2022-10-16T17:26:17;16.60;98.00
21331;DHT22;10824;51.632;4.950;2022-10-16T17:28:44;16.50;98.50
21331;DHT22;10824;51.632;4.950;2022-10-16T17:31:20;16.50;98.70
21331;DHT22;10824;51.632;4.950;2022-10-16T17:33:47;16.50;99.00
21331;DHT22;10824;51.632;4.950;2022-10-16T17:36:14;16.40;99.40
21331;DHT22;10824;51.632;4.950;2022-10-16T17:38:42;16.40;99.60
21331;DHT22;10824;51.632;4.950;2022-10-16T17:41:16;16.40;99.90
21331;DHT22;10824;51.632;4.950;2022-10-16T17:43:45;16.40;99.90
21331;DHT22;10824;51.632;4.950;2022-10-16T17:46:14;16.30;99.90
21331;DHT22;10824;51.632;4.950;2022-10-16T17:48:44;16.20;99.90
21331;DHT22;10824;51.632;4.950;2022-10-16T17:51:13;16.20;99.90
21331;DHT22;10824;51.632;4.950;2022-10-16T17:53:42;16.30;99.90
21331;DHT22;10824;51.632;4.950;2022-10-16T17:56:12;16.20;99.90
21331;DHT22;10824;51.632;4.950;2022-10-16T17:58:42;16.20;99.90
21331;DHT22;10824;51.632;4.950;2022-10-16T18:01:20;16.10;99.90